sensor_id;sensor_type;location;lat;lon;timestamp;P1;durP1;ratioP1;P2;durP2;ratioP2
20857;SDS011;10589;53.636;10.012;2022-09-13T03:47:56;9.07;;;8.13;;
20857;SDS011;10589;53.636;10.012;2022-09-13T03:50:22;9.43;;;8.40;;
20857;SDS011;10589;53.636;10.012;2022-09-13T03:52:50;9.68;;;7.82;;
20857;SDS011;10589;53.636;10.012;2022-09-13T03:55:22;11.70;;;8.48;;
20857;SDS011;10589;53.636;10.012;2022-09-13T03:57:49;10.25;;;9.18;;
20857;SDS011;10589;53.636;10.012;2022-09-13T04:00:15;13.13;;;10.00;;
20857;SDS011;10589;53.636;10.012;2022-09-13T04:02:42;11.82;;;8.90;;
20857;SDS011;10589;53.636;10.012;2022-09-13T04:05:08;15.05;;;9.88;;
20857;SDS011;10589;53.636;10.012;2022-09-13T04:07:33;10.57;;;9.27;;
20857;SDS011;10589;53.636;10.012;2022-09-13T04:09:59;13.25;;;10.00;;
20857;SDS011;10589;53.636;10.012;2022-09-13T04:12:25;13.20;;;10.68;;
20857;SDS011;10589;53.636;10.012;2022-09-13T04:14:52;14.25;;;11.55;;
20857;SDS011;10589;53.636;10.012;2022-09-13T04:17:18;18.33;;;12.65;;
20857;SDS011;10589;53.636;10.012;2022-09-13T04:19:43;14.98;;;11.85;;
20857;SDS011;10589;53.636;10.012;2022-09-13T04:22:11;17.97;;;13.03;;
20857;SDS011;10589;53.636;10.012;2022-09-13T04:24:37;16.80;;;12.43;;
20857;SDS011;10589;53.636;10.012;2022-09-13T04:27:04;18.00;;;13.30;;
20857;SDS011;10589;53.636;10.012;2022-09-13T04:29:30;19.13;;;13.97;;
20857;SDS011;10589;53.636;10.012;2022-09-13T04:31:57;21.97;;;14.53;;
20857;SDS011;10589;53.636;10.012;2022-09-13T04:34:23;17.93;;;15.30;;
20857;SDS011;10589;53.636;10.012;2022-09-13T04:36:49;24.10;;;17.10;;
20857;SDS011;10589;53.636;10.012;2022-09-13T04:39:16;23.43;;;17.33;;
20857;SDS011;10589;53.636;10.012;2022-09-13T04:41:42;27.43;;;18.93;;
20857;SDS011;10589;53.636;10.012;2022-09-13T04:44:13;25.70;;;19.40;;
20857;SDS011;10589;53.636;10.012;2022-09-13T04:46:40;28.47;;;20.27;;
20857;SDS011;10589;53.636;10.012;2022-09-13T04:49:05;29.37;;;22.33;;
20857;SDS011;10589;53.636;10.012;2022-09-13T04:51:33;32.73;;;23.43;;
20857;SDS011;10589;53.636;10.012;2022-09-13T04:53:59;31.60;;;22.50;;
20857;SDS011;10589;53.636;10.012;2022-09-13T04:56:24;32.10;;;21.77;;
20857;SDS011;10589;53.636;10.012;2022-09-13T04:58:51;37.80;;;24.63;;
20857;SDS011;10589;53.636;10.012;2022-09-13T05:01:18;31.83;;;23.27;;
20857;SDS011;10589;53.636;10.012;2022-09-13T05:03:44;36.67;;;26.07;;
20857;SDS011;10589;53.636;10.012;2022-09-13T05:06:11;37.23;;;24.63;;
20857;SDS011;10589;53.636;10.012;2022-09-13T05:08:39;32.83;;;23.33;;
20857;SDS011;10589;53.636;10.012;2022-09-13T05:11:05;33.57;;;24.13;;
20857;SDS011;10589;53.636;10.012;2022-09-13T05:13:31;37.47;;;24.60;;
20857;SDS011;10589;53.636;10.012;2022-09-13T05:15:58;35.77;;;24.27;;
20857;SDS011;10589;53.636;10.012;2022-09-13T05:18:25;37.93;;;26.07;;
20857;SDS011;10589;53.636;10.012;2022-09-13T05:20:52;39.57;;;26.60;;
20857;SDS011;10589;53.636;10.012;2022-09-13T05:23:19;37.63;;;26.50;;
20857;SDS011;10589;53.636;10.012;2022-09-13T05:25:45;41.43;;;28.47;;
20857;SDS011;10589;53.636;10.012;2022-09-13T05:28:16;38.80;;;26.03;;
20857;SDS011;10589;53.636;10.012;2022-09-13T05:30:42;36.93;;;26.80;;
20857;SDS011;10589;53.636;10.012;2022-09-13T05:33:07;36.43;;;26.30;;
20857;SDS011;10589;53.636;10.012;2022-09-13T05:35:33;39.00;;;25.57;;
20857;SDS011;10589;53.636;10.012;2022-09-13T05:37:58;35.67;;;25.53;;
20857;SDS011;10589;53.636;10.012;2022-09-13T05:40:24;39.10;;;27.37;;
20857;SDS011;10589;53.636;10.012;2022-09-13T05:42:51;38.77;;;26.00;;
20857;SDS011;10589;53.636;10.012;2022-09-13T05:45:17;39.77;;;26.13;;
20857;SDS011;10589;53.636;10.012;2022-09-13T05:47:43;38.77;;;26.83;;
20857;SDS011;10589;53.636;10.012;2022-09-13T05:50:09;34.30;;;25.40;;
20857;SDS011;10589;53.636;10.012;2022-09-13T05:52:35;36.60;;;26.20;;
20857;SDS011;10589;53.636;10.012;2022-09-13T05:55:01;34.60;;;25.53;;
20857;SDS011;10589;53.636;10.012;2022-09-13T05:57:26;32.00;;;24.13;;
20857;SDS011;10589;53.636;10.012;2022-09-13T05:59:52;32.38;;;24.45;;
20857;SDS011;10589;53.636;10.012;2022-09-13T06:02:17;34.03;;;23.95;;
20857;SDS011;10589;53.636;10.012;2022-09-13T06:04:43;36.03;;;24.60;;
20857;SDS011;10589;53.636;10.012;2022-09-13T06:07:10;30.10;;;23.30;;
20857;SDS011;10589;53.636;10.012;2022-09-13T06:09:36;30.47;;;22.57;;
20857;SDS011;10589;53.636;10.012;2022-09-13T06:12:02;29.77;;;21.83;;
20857;SDS011;10589;53.636;10.012;2022-09-13T06:14:27;31.40;;;22.23;;
20857;SDS011;10589;53.636;10.012;2022-09-13T06:16:53;29.80;;;21.55;;
20857;SDS011;10589;53.636;10.012;2022-09-13T06:19:19;26.37;;;19.80;;
20857;SDS011;10589;53.636;10.012;2022-09-13T06:21:44;26.25;;;19.02;;
20857;SDS011;10589;53.636;10.012;2022-09-13T06:24:10;26.35;;;20.25;;
20857;SDS011;10589;53.636;10.012;2022-09-13T06:26:36;26.02;;;19.50;;
20857;SDS011;10589;53.636;10.012;2022-09-13T06:29:01;28.63;;;20.75;;
20857;SDS011;10589;53.636;10.012;2022-09-13T06:31:28;27.23;;;20.80;;
20857;SDS011;10589;53.636;10.012;2022-09-13T06:33:57;26.90;;;19.57;;
20857;SDS011;10589;53.636;10.012;2022-09-13T06:36:26;26.15;;;18.60;;
20857;SDS011;10589;53.636;10.012;2022-09-13T06:38:52;26.65;;;18.20;;
20857;SDS011;10589;53.636;10.012;2022-09-13T06:41:19;24.20;;;18.23;;
20857;SDS011;10589;53.636;10.012;2022-09-13T06:43:50;27.15;;;19.23;;
20857;SDS011;10589;53.636;10.012;2022-09-13T06:46:18;25.67;;;19.05;;
20857;SDS011;10589;53.636;10.012;2022-09-13T06:48:44;24.35;;;17.58;;
20857;SDS011;10589;53.636;10.012;2022-09-13T06:51:11;28.05;;;19.20;;
20857;SDS011;10589;53.636;10.012;2022-09-13T06:53:39;24.10;;;16.75;;
20857;SDS011;10589;53.636;10.012;2022-09-13T06:56:10;24.27;;;16.77;;
20857;SDS011;10589;53.636;10.012;2022-09-13T06:58:40;21.92;;;16.08;;
20857;SDS011;10589;53.636;10.012;2022-09-13T07:01:20;23.05;;;16.25;;
20857;SDS011;10589;53.636;10.012;2022-09-13T07:03:49;23.80;;;16.23;;
20857;SDS011;10589;53.636;10.012;2022-09-13T07:06:20;17.55;;;13.13;;
20857;SDS011;10589;53.636;10.012;2022-09-13T07:08:47;20.75;;;13.68;;
20857;SDS011;10589;53.636;10.012;2022-09-13T07:11:15;17.20;;;12.85;;
20857;SDS011;10589;53.636;10.012;2022-09-13T07:13:51;18.42;;;12.30;;
20857;SDS011;10589;53.636;10.012;2022-09-13T07:16:18;17.70;;;11.40;;
20857;SDS011;10589;53.636;10.012;2022-09-13T07:18:53;16.10;;;11.27;;
20857;SDS011;10589;53.636;10.012;2022-09-13T07:21:20;14.82;;;10.80;;
20857;SDS011;10589;53.636;10.012;2022-09-13T07:23:47;17.27;;;11.60;;
20857;SDS011;10589;53.636;10.012;2022-09-13T07:26:13;17.60;;;11.52;;
20857;SDS011;10589;53.636;10.012;2022-09-13T07:28:43;17.15;;;9.95;;
20857;SDS011;10589;53.636;10.012;2022-09-13T07:31:11;15.52;;;8.88;;
20857;SDS011;10589;53.636;10.012;2022-09-13T07:33:39;12.30;;;8.07;;
20857;SDS011;10589;53.636;10.012;2022-09-13T07:36:06;13.40;;;8.10;;
20857;SDS011;10589;53.636;10.012;2022-09-13T07:38:36;16.83;;;8.68;;
20857;SDS011;10589;53.636;10.012;2022-09-13T07:41:09;11.55;;;8.02;;
20857;SDS011;10589;53.636;10.012;2022-09-13T07:43:36;11.85;;;7.57;;
20857;SDS011;10589;53.636;10.012;2022-09-13T07:46:05;11.35;;;7.60;;
20857;SDS011;10589;53.636;10.012;2022-09-13T07:48:34;13.43;;;7.07;;
20857;SDS011;10589;53.636;10.012;2022-09-13T07:51:03;10.23;;;7.03;;
20857;SDS011;10589;53.636;10.012;2022-09-13T07:53:49;9.60;;;6.68;;
20857;SDS011;10589;53.636;10.012;2022-09-13T07:56:20;11.77;;;6.60;;
20857;SDS011;10589;53.636;10.012;2022-09-13T07:58:47;9.00;;;4.97;;
20857;SDS011;10589;53.636;10.012;2022-09-13T08:01:15;8.52;;;4.90;;
20857;SDS011;10589;53.636;10.012;2022-09-13T08:03:41;8.73;;;4.47;;
20857;SDS011;10589;53.636;10.012;2022-09-13T08:06:07;12.82;;;5.63;;
20857;SDS011;10589;53.636;10.012;2022-09-13T08:08:33;10.15;;;5.95;;
20857;SDS011;10589;53.636;10.012;2022-09-13T08:11:00;8.35;;;4.80;;
20857;SDS011;10589;53.636;10.012;2022-09-13T08:13:28;8.75;;;4.57;;
20857;SDS011;10589;53.636;10.012;2022-09-13T08:15:54;9.57;;;4.30;;
20857;SDS011;10589;53.636;10.012;2022-09-13T08:18:20;8.70;;;4.28;;
20857;SDS011;10589;53.636;10.012;2022-09-13T08:20:46;8.15;;;3.58;;
20857;SDS011;10589;53.636;10.012;2022-09-13T08:23:12;12.60;;;3.47;;
20857;SDS011;10589;53.636;10.012;2022-09-13T08:25:39;7.43;;;2.78;;
20857;SDS011;10589;53.636;10.012;2022-09-13T08:28:08;6.75;;;2.50;;
20857;SDS011;10589;53.636;10.012;2022-09-13T08:30:38;7.28;;;2.28;;
20857;SDS011;10589;53.636;10.012;2022-09-13T08:33:06;12.20;;;2.90;;
20857;SDS011;10589;53.636;10.012;2022-09-13T08:35:32;9.82;;;1.98;;
20857;SDS011;10589;53.636;10.012;2022-09-13T08:37:59;10.82;;;1.98;;
20857;SDS011;10589;53.636;10.012;2022-09-13T08:40:26;5.97;;;1.80;;
20857;SDS011;10589;53.636;10.012;2022-09-13T08:46:36;5.22;;;1.20;;
20857;SDS011;10589;53.636;10.012;2022-09-13T08:48:48;3.22;;;0.70;;
20857;SDS011;10589;53.636;10.012;2022-09-13T08:51:31;6.00;;;1.25;;
20857;SDS011;10589;53.636;10.012;2022-09-13T08:54:04;4.93;;;0.73;;
20857;SDS011;10589;53.636;10.012;2022-09-13T08:56:40;3.42;;;0.80;;
20857;SDS011;10589;53.636;10.012;2022-09-13T08:59:58;7.20;;;1.20;;
20857;SDS011;10589;53.636;10.012;2022-09-13T09:07:26;5.05;;;0.90;;
20857;SDS011;10589;53.636;10.012;2022-09-13T09:09:59;5.75;;;0.80;;
20857;SDS011;10589;53.636;10.012;2022-09-13T09:12:36;6.43;;;0.80;;
20857;SDS011;10589;53.636;10.012;2022-09-13T09:15:16;5.65;;;0.80;;
20857;SDS011;10589;53.636;10.012;2022-09-13T09:17:50;5.03;;;0.90;;
20857;SDS011;10589;53.636;10.012;2022-09-13T09:22:52;8.82;;;0.90;;
20857;SDS011;10589;53.636;10.012;2022-09-13T09:25:20;4.30;;;0.68;;
20857;SDS011;10589;53.636;10.012;2022-09-13T09:27:49;5.78;;;0.90;;
20857;SDS011;10589;53.636;10.012;2022-09-13T09:30:15;3.10;;;0.57;;
20857;SDS011;10589;53.636;10.012;2022-09-13T09:35:32;6.13;;;0.90;;
20857;SDS011;10589;53.636;10.012;2022-09-13T09:38:13;5.15;;;0.80;;
20857;SDS011;10589;53.636;10.012;2022-09-13T09:40:52;6.90;;;1.00;;
20857;SDS011;10589;53.636;10.012;2022-09-13T09:43:28;7.15;;;1.00;;
20857;SDS011;10589;53.636;10.012;2022-09-13T09:46:16;8.10;;;0.80;;
20857;SDS011;10589;53.636;10.012;2022-09-13T09:48:49;7.47;;;1.08;;
20857;SDS011;10589;53.636;10.012;2022-09-13T09:51:18;3.13;;;0.63;;
20857;SDS011;10589;53.636;10.012;2022-09-13T09:53:47;4.32;;;0.88;;
20857;SDS011;10589;53.636;10.012;2022-09-13T09:56:21;6.20;;;0.93;;
20857;SDS011;10589;53.636;10.012;2022-09-13T09:58:47;5.50;;;0.65;;
20857;SDS011;10589;53.636;10.012;2022-09-13T10:01:15;6.32;;;0.90;;
20857;SDS011;10589;53.636;10.012;2022-09-13T10:03:46;4.90;;;0.75;;
20857;SDS011;10589;53.636;10.012;2022-09-13T10:06:34;3.38;;;0.73;;
20857;SDS011;10589;53.636;10.012;2022-09-13T10:09:06;8.80;;;0.95;;
20857;SDS011;10589;53.636;10.012;2022-09-13T10:11:47;7.72;;;0.80;;
20857;SDS011;10589;53.636;10.012;2022-09-13T10:19:39;7.72;;;1.05;;
20857;SDS011;10589;53.636;10.012;2022-09-13T10:22:09;7.28;;;0.90;;
20857;SDS011;10589;53.636;10.012;2022-09-13T10:24:37;7.85;;;1.30;;
20857;SDS011;10589;53.636;10.012;2022-09-13T10:27:03;7.50;;;1.00;;
20857;SDS011;10589;53.636;10.012;2022-09-13T10:29:45;6.32;;;0.95;;
20857;SDS011;10589;53.636;10.012;2022-09-13T10:32:13;8.45;;;1.05;;
20857;SDS011;10589;53.636;10.012;2022-09-13T10:34:43;4.32;;;0.98;;
20857;SDS011;10589;53.636;10.012;2022-09-13T10:42:32;3.80;;;0.88;;
20857;SDS011;10589;53.636;10.012;2022-09-13T10:45:07;3.40;;;0.60;;
20857;SDS011;10589;53.636;10.012;2022-09-13T10:47:43;6.43;;;0.90;;
20857;SDS011;10589;53.636;10.012;2022-09-13T10:50:19;4.65;;;0.93;;
20857;SDS011;10589;53.636;10.012;2022-09-13T10:52:46;7.03;;;1.10;;
20857;SDS011;10589;53.636;10.012;2022-09-13T10:57:45;6.53;;;1.02;;
20857;SDS011;10589;53.636;10.012;2022-09-13T11:00:38;5.13;;;0.85;;
20857;SDS011;10589;53.636;10.012;2022-09-13T11:11:13;5.85;;;1.00;;
20857;SDS011;10589;53.636;10.012;2022-09-13T11:14:09;6.60;;;0.80;;
20857;SDS011;10589;53.636;10.012;2022-09-13T11:20:41;4.45;;;1.10;;
20857;SDS011;10589;53.636;10.012;2022-09-13T11:28:36;6.05;;;0.77;;
20857;SDS011;10589;53.636;10.012;2022-09-13T11:42:45;4.88;;;0.82;;
20857;SDS011;10589;53.636;10.012;2022-09-13T11:53:40;5.50;;;0.80;;
20857;SDS011;10589;53.636;10.012;2022-09-13T11:56:33;5.20;;;0.90;;
20857;SDS011;10589;53.636;10.012;2022-09-13T12:02:26;4.85;;;0.65;;
20857;SDS011;10589;53.636;10.012;2022-09-13T12:05:10;4.72;;;1.00;;
20857;SDS011;10589;53.636;10.012;2022-09-13T12:08:09;5.15;;;1.00;;
20857;SDS011;10589;53.636;10.012;2022-09-13T12:13:30;6.82;;;1.25;;
20857;SDS011;10589;53.636;10.012;2022-09-13T12:16:02;7.28;;;0.70;;
20857;SDS011;10589;53.636;10.012;2022-09-13T12:18:51;4.18;;;0.77;;
20857;SDS011;10589;53.636;10.012;2022-09-13T12:21:25;4.13;;;1.10;;
20857;SDS011;10589;53.636;10.012;2022-09-13T12:26:27;6.68;;;1.00;;
20857;SDS011;10589;53.636;10.012;2022-09-13T12:29:02;5.30;;;0.80;;
20857;SDS011;10589;53.636;10.012;2022-09-13T12:31:30;4.20;;;0.93;;
20857;SDS011;10589;53.636;10.012;2022-09-13T12:33:56;6.72;;;1.00;;
20857;SDS011;10589;53.636;10.012;2022-09-13T12:45:02;8.98;;;1.20;;
20857;SDS011;10589;53.636;10.012;2022-09-13T12:48:06;5.85;;;1.10;;
20857;SDS011;10589;53.636;10.012;2022-09-13T13:01:43;2.92;;;0.63;;
20857;SDS011;10589;53.636;10.012;2022-09-13T13:12:06;6.07;;;1.17;;
20857;SDS011;10589;53.636;10.012;2022-09-13T13:14:49;4.53;;;0.85;;
20857;SDS011;10589;53.636;10.012;2022-09-13T13:23:13;4.95;;;1.05;;
20857;SDS011;10589;53.636;10.012;2022-09-13T13:36:31;3.47;;;0.70;;
20857;SDS011;10589;53.636;10.012;2022-09-13T13:46:52;6.75;;;1.27;;
20857;SDS011;10589;53.636;10.012;2022-09-13T14:00:15;5.03;;;0.73;;
20857;SDS011;10589;53.636;10.012;2022-09-13T14:05:21;9.40;;;1.15;;
20857;SDS011;10589;53.636;10.012;2022-09-13T14:08:35;5.13;;;0.90;;
20857;SDS011;10589;53.636;10.012;2022-09-13T14:19:31;6.32;;;1.38;;
20857;SDS011;10589;53.636;10.012;2022-09-13T14:29:57;6.03;;;1.20;;
20857;SDS011;10589;53.636;10.012;2022-09-13T14:32:29;5.97;;;1.10;;
20857;SDS011;10589;53.636;10.012;2022-09-13T14:35:17;5.55;;;1.20;;
20857;SDS011;10589;53.636;10.012;2022-09-13T14:40:53;6.20;;;0.98;;
20857;SDS011;10589;53.636;10.012;2022-09-13T14:43:23;7.95;;;1.10;;
20857;SDS011;10589;53.636;10.012;2022-09-13T14:45:57;2.35;;;0.82;;
20857;SDS011;10589;53.636;10.012;2022-09-13T14:48:50;10.00;;;1.40;;
20857;SDS011;10589;53.636;10.012;2022-09-13T14:53:50;5.88;;;1.15;;
20857;SDS011;10589;53.636;10.012;2022-09-13T14:56:40;7.93;;;1.20;;
20857;SDS011;10589;53.636;10.012;2022-09-13T14:59:44;6.40;;;1.00;;
20857;SDS011;10589;53.636;10.012;2022-09-13T15:02:17;6.15;;;1.10;;
20857;SDS011;10589;53.636;10.012;2022-09-13T15:04:50;6.35;;;1.27;;
20857;SDS011;10589;53.636;10.012;2022-09-13T15:09:55;4.75;;;0.70;;
20857;SDS011;10589;53.636;10.012;2022-09-13T15:12:37;9.55;;;1.17;;
20857;SDS011;10589;53.636;10.012;2022-09-13T15:23:36;7.00;;;1.30;;
20857;SDS011;10589;53.636;10.012;2022-09-13T15:26:09;5.97;;;1.23;;
20857;SDS011;10589;53.636;10.012;2022-09-13T15:31:08;7.38;;;1.20;;
20857;SDS011;10589;53.636;10.012;2022-09-13T15:33:35;5.53;;;1.30;;
20857;SDS011;10589;53.636;10.012;2022-09-13T15:41:43;8.02;;;1.40;;
20857;SDS011;10589;53.636;10.012;2022-09-13T15:44:19;8.23;;;1.50;;
20857;SDS011;10589;53.636;10.012;2022-09-13T15:46:46;9.10;;;1.27;;
20857;SDS011;10589;53.636;10.012;2022-09-13T15:49:18;4.90;;;1.20;;
20857;SDS011;10589;53.636;10.012;2022-09-13T15:51:56;6.53;;;0.95;;
20857;SDS011;10589;53.636;10.012;2022-09-13T15:54:25;8.07;;;1.20;;
20857;SDS011;10589;53.636;10.012;2022-09-13T15:57:06;4.88;;;0.82;;
20857;SDS011;10589;53.636;10.012;2022-09-13T15:59:34;5.03;;;0.80;;
20857;SDS011;10589;53.636;10.012;2022-09-13T16:02:00;5.53;;;0.88;;
20857;SDS011;10589;53.636;10.012;2022-09-13T16:04:37;3.65;;;0.90;;
20857;SDS011;10589;53.636;10.012;2022-09-13T16:07:02;4.97;;;0.80;;
20857;SDS011;10589;53.636;10.012;2022-09-13T16:09:28;3.33;;;0.70;;
20857;SDS011;10589;53.636;10.012;2022-09-13T16:11:53;2.63;;;0.82;;
20857;SDS011;10589;53.636;10.012;2022-09-13T16:14:19;5.32;;;0.80;;
20857;SDS011;10589;53.636;10.012;2022-09-13T16:16:45;8.18;;;0.88;;
20857;SDS011;10589;53.636;10.012;2022-09-13T16:19:17;4.20;;;0.80;;
20857;SDS011;10589;53.636;10.012;2022-09-13T16:21:44;4.88;;;0.98;;
20857;SDS011;10589;53.636;10.012;2022-09-13T16:24:11;6.30;;;0.90;;
20857;SDS011;10589;53.636;10.012;2022-09-13T16:26:36;4.32;;;1.25;;
20857;SDS011;10589;53.636;10.012;2022-09-13T16:29:03;2.30;;;0.80;;
20857;SDS011;10589;53.636;10.012;2022-09-13T16:31:29;2.95;;;0.85;;
20857;SDS011;10589;53.636;10.012;2022-09-13T16:33:54;3.38;;;0.55;;
20857;SDS011;10589;53.636;10.012;2022-09-13T16:36:21;4.40;;;0.73;;
20857;SDS011;10589;53.636;10.012;2022-09-13T16:38:47;3.92;;;0.88;;
20857;SDS011;10589;53.636;10.012;2022-09-13T16:41:13;5.50;;;0.68;;
20857;SDS011;10589;53.636;10.012;2022-09-13T16:43:39;4.15;;;0.80;;
20857;SDS011;10589;53.636;10.012;2022-09-13T16:46:08;3.33;;;0.80;;
20857;SDS011;10589;53.636;10.012;2022-09-13T16:48:35;3.50;;;0.60;;
20857;SDS011;10589;53.636;10.012;2022-09-13T16:51:04;3.20;;;0.52;;
20857;SDS011;10589;53.636;10.012;2022-09-13T16:53:32;3.95;;;1.00;;
20857;SDS011;10589;53.636;10.012;2022-09-13T16:56:09;7.65;;;0.70;;
20857;SDS011;10589;53.636;10.012;2022-09-13T16:58:40;5.85;;;0.80;;
20857;SDS011;10589;53.636;10.012;2022-09-13T17:01:09;4.03;;;0.85;;
20857;SDS011;10589;53.636;10.012;2022-09-13T17:03:36;4.93;;;0.90;;
20857;SDS011;10589;53.636;10.012;2022-09-13T17:06:04;4.25;;;0.70;;
20857;SDS011;10589;53.636;10.012;2022-09-13T17:08:32;4.85;;;0.75;;
20857;SDS011;10589;53.636;10.012;2022-09-13T17:10:59;6.80;;;1.00;;
20857;SDS011;10589;53.636;10.012;2022-09-13T17:13:28;3.83;;;0.90;;
20857;SDS011;10589;53.636;10.012;2022-09-13T17:15:54;3.60;;;1.02;;
20857;SDS011;10589;53.636;10.012;2022-09-13T17:18:19;3.25;;;0.80;;
20857;SDS011;10589;53.636;10.012;2022-09-13T17:20:46;4.03;;;0.73;;
20857;SDS011;10589;53.636;10.012;2022-09-13T17:23:13;3.92;;;0.75;;
20857;SDS011;10589;53.636;10.012;2022-09-13T17:25:40;6.22;;;1.02;;
20857;SDS011;10589;53.636;10.012;2022-09-13T17:28:10;4.47;;;1.00;;
20857;SDS011;10589;53.636;10.012;2022-09-13T17:30:36;5.93;;;0.85;;
20857;SDS011;10589;53.636;10.012;2022-09-13T17:33:01;5.95;;;1.05;;
20857;SDS011;10589;53.636;10.012;2022-09-13T17:35:29;4.88;;;0.90;;
20857;SDS011;10589;53.636;10.012;2022-09-13T17:37:56;4.70;;;1.05;;
20857;SDS011;10589;53.636;10.012;2022-09-13T17:40:22;5.25;;;1.00;;
20857;SDS011;10589;53.636;10.012;2022-09-13T17:42:47;3.55;;;1.10;;
20857;SDS011;10589;53.636;10.012;2022-09-13T17:45:14;7.43;;;1.15;;
20857;SDS011;10589;53.636;10.012;2022-09-13T17:47:39;2.90;;;0.90;;
20857;SDS011;10589;53.636;10.012;2022-09-13T17:50:05;4.38;;;0.90;;
20857;SDS011;10589;53.636;10.012;2022-09-13T17:52:32;8.55;;;0.98;;
20857;SDS011;10589;53.636;10.012;2022-09-13T17:54:57;8.48;;;1.17;;
20857;SDS011;10589;53.636;10.012;2022-09-13T17:57:23;5.50;;;1.13;;
20857;SDS011;10589;53.636;10.012;2022-09-13T17:59:49;6.07;;;0.90;;
20857;SDS011;10589;53.636;10.012;2022-09-13T18:02:16;5.30;;;1.00;;
20857;SDS011;10589;53.636;10.012;2022-09-13T18:04:41;7.22;;;1.23;;
20857;SDS011;10589;53.636;10.012;2022-09-13T18:07:07;4.75;;;0.93;;
20857;SDS011;10589;53.636;10.012;2022-09-13T18:09:33;6.45;;;1.05;;
20857;SDS011;10589;53.636;10.012;2022-09-13T18:11:58;5.50;;;1.10;;
20857;SDS011;10589;53.636;10.012;2022-09-13T18:14:24;7.05;;;1.15;;
20857;SDS011;10589;53.636;10.012;2022-09-13T18:16:51;6.25;;;0.95;;
20857;SDS011;10589;53.636;10.012;2022-09-13T18:19:24;7.22;;;1.75;;
20857;SDS011;10589;53.636;10.012;2022-09-13T18:21:49;3.60;;;0.85;;
20857;SDS011;10589;53.636;10.012;2022-09-13T18:24:15;8.40;;;1.25;;
20857;SDS011;10589;53.636;10.012;2022-09-13T18:26:41;5.25;;;1.13;;
20857;SDS011;10589;53.636;10.012;2022-09-13T18:29:10;7.22;;;1.33;;
20857;SDS011;10589;53.636;10.012;2022-09-13T18:31:38;8.32;;;1.27;;
20857;SDS011;10589;53.636;10.012;2022-09-13T18:34:06;6.47;;;0.90;;
20857;SDS011;10589;53.636;10.012;2022-09-13T18:36:35;4.80;;;0.98;;
20857;SDS011;10589;53.636;10.012;2022-09-13T18:39:04;10.38;;;1.45;;
20857;SDS011;10589;53.636;10.012;2022-09-13T18:41:35;7.07;;;1.10;;
20857;SDS011;10589;53.636;10.012;2022-09-13T18:44:04;4.47;;;1.00;;
20857;SDS011;10589;53.636;10.012;2022-09-13T18:46:31;5.73;;;1.10;;
20857;SDS011;10589;53.636;10.012;2022-09-13T18:48:59;5.30;;;0.90;;
20857;SDS011;10589;53.636;10.012;2022-09-13T18:51:33;6.07;;;1.20;;
20857;SDS011;10589;53.636;10.012;2022-09-13T18:54:00;8.70;;;0.98;;
20857;SDS011;10589;53.636;10.012;2022-09-13T18:56:28;4.55;;;0.90;;
20857;SDS011;10589;53.636;10.012;2022-09-13T18:58:58;4.93;;;1.23;;
20857;SDS011;10589;53.636;10.012;2022-09-13T19:01:26;5.40;;;0.97;;
20857;SDS011;10589;53.636;10.012;2022-09-13T19:06:22;6.23;;;1.07;;
20857;SDS011;10589;53.636;10.012;2022-09-13T19:08:49;5.68;;;1.15;;
20857;SDS011;10589;53.636;10.012;2022-09-13T19:11:16;5.60;;;0.93;;
20857;SDS011;10589;53.636;10.012;2022-09-13T19:13:42;5.85;;;1.30;;
20857;SDS011;10589;53.636;10.012;2022-09-13T19:16:10;7.32;;;1.02;;
20857;SDS011;10589;53.636;10.012;2022-09-13T19:18:39;4.15;;;0.93;;
20857;SDS011;10589;53.636;10.012;2022-09-13T19:21:10;2.30;;;0.82;;
20857;SDS011;10589;53.636;10.012;2022-09-13T19:23:40;6.72;;;1.00;;
20857;SDS011;10589;53.636;10.012;2022-09-13T19:28:53;4.45;;;0.80;;
20857;SDS011;10589;53.636;10.012;2022-09-13T19:31:22;6.53;;;0.90;;
20857;SDS011;10589;53.636;10.012;2022-09-13T19:33:49;3.10;;;1.00;;
20857;SDS011;10589;53.636;10.012;2022-09-13T19:36:16;8.13;;;1.60;;
20857;SDS011;10589;53.636;10.012;2022-09-13T19:38:43;4.30;;;0.80;;
20857;SDS011;10589;53.636;10.012;2022-09-13T19:41:10;4.03;;;0.80;;
20857;SDS011;10589;53.636;10.012;2022-09-13T19:43:38;4.80;;;1.00;;
20857;SDS011;10589;53.636;10.012;2022-09-13T19:46:12;4.63;;;0.90;;
20857;SDS011;10589;53.636;10.012;2022-09-13T19:48:40;4.50;;;0.93;;
20857;SDS011;10589;53.636;10.012;2022-09-13T19:51:11;4.10;;;1.00;;
20857;SDS011;10589;53.636;10.012;2022-09-13T19:53:42;4.28;;;1.38;;
20857;SDS011;10589;53.636;10.012;2022-09-13T19:56:12;4.83;;;0.60;;
20857;SDS011;10589;53.636;10.012;2022-09-13T19:58:40;5.15;;;1.10;;
20857;SDS011;10589;53.636;10.012;2022-09-13T20:01:07;2.83;;;0.63;;
20857;SDS011;10589;53.636;10.012;2022-09-13T20:03:39;5.03;;;0.90;;
20857;SDS011;10589;53.636;10.012;2022-09-13T20:06:07;4.47;;;1.08;;
20857;SDS011;10589;53.636;10.012;2022-09-13T20:08:35;5.20;;;0.70;;
20857;SDS011;10589;53.636;10.012;2022-09-13T20:11:06;4.43;;;0.60;;
20857;SDS011;10589;53.636;10.012;2022-09-13T20:13:33;4.90;;;0.63;;
20857;SDS011;10589;53.636;10.012;2022-09-13T20:16:00;3.10;;;0.60;;
20857;SDS011;10589;53.636;10.012;2022-09-13T20:18:29;5.43;;;0.80;;
20857;SDS011;10589;53.636;10.012;2022-09-13T20:21:00;6.23;;;1.00;;
20857;SDS011;10589;53.636;10.012;2022-09-13T20:23:28;4.00;;;1.40;;
20857;SDS011;10589;53.636;10.012;2022-09-13T20:25:54;3.13;;;0.80;;
20857;SDS011;10589;53.636;10.012;2022-09-13T20:28:19;3.63;;;0.70;;
20857;SDS011;10589;53.636;10.012;2022-09-13T20:30:55;4.30;;;0.63;;
20857;SDS011;10589;53.636;10.012;2022-09-13T20:33:23;5.40;;;1.10;;
20857;SDS011;10589;53.636;10.012;2022-09-13T20:35:50;4.40;;;0.87;;
20857;SDS011;10589;53.636;10.012;2022-09-13T20:38:16;3.23;;;0.90;;
20857;SDS011;10589;53.636;10.012;2022-09-13T20:40:42;3.93;;;0.90;;
20857;SDS011;10589;53.636;10.012;2022-09-13T20:43:08;6.47;;;1.10;;
20857;SDS011;10589;53.636;10.012;2022-09-13T20:45:34;3.77;;;1.07;;
20857;SDS011;10589;53.636;10.012;2022-09-13T20:48:00;4.33;;;1.00;;
20857;SDS011;10589;53.636;10.012;2022-09-13T20:50:25;4.73;;;1.00;;
20857;SDS011;10589;53.636;10.012;2022-09-13T20:52:52;5.77;;;1.20;;
20857;SDS011;10589;53.636;10.012;2022-09-13T20:55:21;4.83;;;0.90;;
20857;SDS011;10589;53.636;10.012;2022-09-13T20:57:46;6.10;;;0.97;;
20857;SDS011;10589;53.636;10.012;2022-09-13T21:00:12;4.13;;;0.70;;
20857;SDS011;10589;53.636;10.012;2022-09-13T21:02:38;3.00;;;0.70;;
20857;SDS011;10589;53.636;10.012;2022-09-13T21:05:04;4.37;;;0.77;;
20857;SDS011;10589;53.636;10.012;2022-09-13T21:07:30;4.00;;;1.10;;
20857;SDS011;10589;53.636;10.012;2022-09-13T21:10:14;3.60;;;0.70;;
20857;SDS011;10589;53.636;10.012;2022-09-13T21:12:40;3.77;;;0.70;;
20857;SDS011;10589;53.636;10.012;2022-09-13T21:15:06;6.63;;;0.90;;
20857;SDS011;10589;53.636;10.012;2022-09-13T21:17:31;5.27;;;1.20;;
20857;SDS011;10589;53.636;10.012;2022-09-13T21:19:57;3.60;;;0.70;;
20857;SDS011;10589;53.636;10.012;2022-09-13T21:22:24;2.60;;;0.83;;
20857;SDS011;10589;53.636;10.012;2022-09-13T21:24:50;3.07;;;0.60;;
20857;SDS011;10589;53.636;10.012;2022-09-13T21:27:16;5.13;;;0.70;;
20857;SDS011;10589;53.636;10.012;2022-09-13T21:29:41;3.50;;;0.67;;
20857;SDS011;10589;53.636;10.012;2022-09-13T21:32:07;3.00;;;0.80;;
20857;SDS011;10589;53.636;10.012;2022-09-13T21:34:33;4.57;;;0.80;;